sensor_id;sensor_type;location;lat;lon;timestamp;temperature;humidity
2489;DHT22;1255;48.716;9.124;2022-09-09T00:49:48;14.80;99.90
2489;DHT22;1255;48.716;9.124;2022-09-09T00:52:30;14.80;99.90
2489;DHT22;1255;48.716;9.124;2022-09-09T00:55:05;14.90;99.90
2489;DHT22;1255;48.716;9.124;2022-09-09T00:57:34;14.90;99.90
2489;DHT22;1255;48.716;9.124;2022-09-09T01:00:18;14.90;99.90
2489;DHT22;1255;48.716;9.124;2022-09-09T01:02:53;14.90;99.90
2489;DHT22;1255;48.716;9.124;2022-09-09T01:05:27;14.90;99.90
2489;DHT22;1255;48.716;9.124;2022-09-09T01:07:58;14.90;99.90
2489;DHT22;1255;48.716;9.124;2022-09-09T01:10:34;14.90;99.90
2489;DHT22;1255;48.716;9.124;2022-09-09T01:13:11;14.80;99.90
2489;DHT22;1255;48.716;9.124;2022-09-09T01:15:42;14.80;99.90
2489;DHT22;1255;48.716;9.124;2022-09-09T01:18:14;14.80;99.90
2489;DHT22;1255;48.716;9.124;2022-09-09T01:20:51;14.80;99.90
2489;DHT22;1255;48.716;9.124;2022-09-09T03:35:36;14.40;99.90
2489;DHT22;1255;48.716;9.124;2022-09-09T03:38:03;14.40;99.90
2489;DHT22;1255;48.716;9.124;2022-09-09T05:24:18;14.70;99.90
2489;DHT22;1255;48.716;9.124;2022-09-09T08:12:40;18.40;99.90
2489;DHT22;1255;48.716;9.124;2022-09-09T08:15:07;18.50;99.90
2489;DHT22;1255;48.716;9.124;2022-09-09T08:17:34;18.60;99.90
2489;DHT22;1255;48.716;9.124;2022-09-09T08:20:03;18.70;99.90
2489;DHT22;1255;48.716;9.124;2022-09-09T08:22:32;18.80;99.90
2489;DHT22;1255;48.716;9.124;2022-09-09T08:24:59;18.90;99.90
2489;DHT22;1255;48.716;9.124;2022-09-09T08:27:27;19.10;99.90
2489;DHT22;1255;48.716;9.124;2022-09-09T08:29:56;19.10;99.90
2489;DHT22;1255;48.716;9.124;2022-09-09T08:32:24;19.30;99.90
2489;DHT22;1255;48.716;9.124;2022-09-09T08:34:51;19.40;99.90
2489;DHT22;1255;48.716;9.124;2022-09-09T08:37:18;19.40;99.90
2489;DHT22;1255;48.716;9.124;2022-09-09T08:39:48;19.60;99.90
2489;DHT22;1255;48.716;9.124;2022-09-09T08:42:32;19.70;99.90
2489;DHT22;1255;48.716;9.124;2022-09-09T08:45:18;19.70;99.90
2489;DHT22;1255;48.716;9.124;2022-09-09T08:47:54;19.80;99.90
2489;DHT22;1255;48.716;9.124;2022-09-09T08:50:27;19.90;99.90
2489;DHT22;1255;48.716;9.124;2022-09-09T08:53:00;20.00;99.90
2489;DHT22;1255;48.716;9.124;2022-09-09T08:55:35;20.00;99.90
2489;DHT22;1255;48.716;9.124;2022-09-09T08:58:09;20.10;99.90
2489;DHT22;1255;48.716;9.124;2022-09-09T09:00:45;20.30;99.90
2489;DHT22;1255;48.716;9.124;2022-09-09T09:03:21;20.60;99.90
2489;DHT22;1255;48.716;9.124;2022-09-09T09:05:59;20.70;99.90
2489;DHT22;1255;48.716;9.124;2022-09-09T09:08:33;20.60;99.90
2489;DHT22;1255;48.716;9.124;2022-09-09T09:11:00;20.50;99.90
2489;DHT22;1255;48.716;9.124;2022-09-09T09:13:34;20.60;99.90
2489;DHT22;1255;48.716;9.124;2022-09-09T09:16:13;20.50;99.90
2489;DHT22;1255;48.716;9.124;2022-09-09T09:18:40;20.20;99.90
2489;DHT22;1255;48.716;9.124;2022-09-09T09:21:12;19.80;99.90
2489;DHT22;1255;48.716;9.124;2022-09-09T09:23:45;19.30;99.90
2489;DHT22;1255;48.716;9.124;2022-09-09T09:26:16;19.00;99.90
2489;DHT22;1255;48.716;9.124;2022-09-09T09:28:47;18.70;99.90
2489;DHT22;1255;48.716;9.124;2022-09-09T09:31:15;18.30;99.90
2489;DHT22;1255;48.716;9.124;2022-09-09T09:33:48;18.10;99.90
2489;DHT22;1255;48.716;9.124;2022-09-09T09:36:16;18.00;99.90
2489;DHT22;1255;48.716;9.124;2022-09-09T09:38:54;18.10;99.90
2489;DHT22;1255;48.716;9.124;2022-09-09T09:41:32;18.40;99.90
2489;DHT22;1255;48.716;9.124;2022-09-09T09:44:00;18.70;99.90
2489;DHT22;1255;48.716;9.124;2022-09-09T09:46:29;18.70;99.90
2489;DHT22;1255;48.716;9.124;2022-09-09T09:49:00;18.60;99.90
2489;DHT22;1255;48.716;9.124;2022-09-09T09:51:28;18.80;99.90
2489;DHT22;1255;48.716;9.124;2022-09-09T09:54:06;19.00;99.90
2489;DHT22;1255;48.716;9.124;2022-09-09T09:56:35;19.30;99.90
2489;DHT22;1255;48.716;9.124;2022-09-09T09:59:03;19.60;99.90
2489;DHT22;1255;48.716;9.124;2022-09-09T10:01:32;19.80;99.90
2489;DHT22;1255;48.716;9.124;2022-09-09T10:04:01;20.00;99.90
2489;DHT22;1255;48.716;9.124;2022-09-09T10:06:33;20.30;99.90
2489;DHT22;1255;48.716;9.124;2022-09-09T10:09:02;20.60;99.90
2489;DHT22;1255;48.716;9.124;2022-09-09T10:11:41;20.80;99.90
2489;DHT22;1255;48.716;9.124;2022-09-09T10:14:18;21.10;99.90
2489;DHT22;1255;48.716;9.124;2022-09-09T10:16:59;21.20;99.90
2489;DHT22;1255;48.716;9.124;2022-09-09T10:19:33;21.40;99.90
2489;DHT22;1255;48.716;9.124;2022-09-09T10:22:08;21.60;99.90
2489;DHT22;1255;48.716;9.124;2022-09-09T10:25:14;21.70;99.90
2489;DHT22;1255;48.716;9.124;2022-09-09T10:27:53;21.50;99.90
2489;DHT22;1255;48.716;9.124;2022-09-09T10:30:26;21.30;99.90
2489;DHT22;1255;48.716;9.124;2022-09-09T10:33:07;21.10;99.90
2489;DHT22;1255;48.716;9.124;2022-09-09T10:35:39;20.90;99.90
2489;DHT22;1255;48.716;9.124;2022-09-09T10:38:14;20.90;99.90
2489;DHT22;1255;48.716;9.124;2022-09-09T10:40:46;20.90;99.90
2489;DHT22;1255;48.716;9.124;2022-09-09T10:43:31;20.70;99.90
2489;DHT22;1255;48.716;9.124;2022-09-09T10:46:09;20.60;99.90
2489;DHT22;1255;48.716;9.124;2022-09-09T10:48:50;20.50;99.90
2489;DHT22;1255;48.716;9.124;2022-09-09T10:51:30;20.50;99.90
2489;DHT22;1255;48.716;9.124;2022-09-09T10:54:10;20.50;99.90
2489;DHT22;1255;48.716;9.124;2022-09-09T10:56:39;20.40;99.90
2489;DHT22;1255;48.716;9.124;2022-09-09T10:59:12;20.40;99.90
2489;DHT22;1255;48.716;9.124;2022-09-09T11:01:44;20.50;99.90
2489;DHT22;1255;48.716;9.124;2022-09-09T11:04:19;20.50;99.90
2489;DHT22;1255;48.716;9.124;2022-09-09T11:06:50;20.40;99.90
2489;DHT22;1255;48.716;9.124;2022-09-09T11:09:22;20.50;99.90
2489;DHT22;1255;48.716;9.124;2022-09-09T11:11:52;20.50;99.90
2489;DHT22;1255;48.716;9.124;2022-09-09T11:14:25;20.50;99.90
2489;DHT22;1255;48.716;9.124;2022-09-09T11:16:58;20.50;99.90
2489;DHT22;1255;48.716;9.124;2022-09-09T11:19:30;20.40;99.90
2489;DHT22;1255;48.716;9.124;2022-09-09T11:22:02;20.20;99.90
2489;DHT22;1255;48.716;9.124;2022-09-09T11:24:33;20.00;99.90
2489;DHT22;1255;48.716;9.124;2022-09-09T11:27:05;19.70;99.90
2489;DHT22;1255;48.716;9.124;2022-09-09T11:32:45;19.20;99.90
2489;DHT22;1255;48.716;9.124;2022-09-09T11:35:26;19.00;99.90
2489;DHT22;1255;48.716;9.124;2022-09-09T11:38:24;19.00;99.90
2489;DHT22;1255;48.716;9.124;2022-09-09T11:41:00;18.90;99.90
2489;DHT22;1255;48.716;9.124;2022-09-09T11:43:30;18.90;99.90
2489;DHT22;1255;48.716;9.124;2022-09-09T11:46:00;18.70;99.90
2489;DHT22;1255;48.716;9.124;2022-09-09T11:48:33;18.60;99.90
2489;DHT22;1255;48.716;9.124;2022-09-09T11:51:05;18.60;99.90
2489;DHT22;1255;48.716;9.124;2022-09-09T11:53:34;18.70;99.90
2489;DHT22;1255;48.716;9.124;2022-09-09T11:56:11;18.80;99.90
2489;DHT22;1255;48.716;9.124;2022-09-09T11:58:42;19.00;99.90
2489;DHT22;1255;48.716;9.124;2022-09-09T12:01:28;19.20;99.90
2489;DHT22;1255;48.716;9.124;2022-09-09T12:04:09;19.20;99.90
2489;DHT22;1255;48.716;9.124;2022-09-09T12:06:44;19.20;99.90
2489;DHT22;1255;48.716;9.124;2022-09-09T12:09:19;19.20;99.90
2489;DHT22;1255;48.716;9.124;2022-09-09T12:11:48;19.40;99.90
2489;DHT22;1255;48.716;9.124;2022-09-09T12:14:34;19.60;99.90
2489;DHT22;1255;48.716;9.124;2022-09-09T12:17:10;19.80;99.90
2489;DHT22;1255;48.716;9.124;2022-09-09T12:19:47;20.20;99.90
2489;DHT22;1255;48.716;9.124;2022-09-09T12:22:24;20.60;99.90
2489;DHT22;1255;48.716;9.124;2022-09-09T12:48:12;21.00;99.90
2489;DHT22;1255;48.716;9.124;2022-09-09T12:50:45;20.80;99.90
2489;DHT22;1255;48.716;9.124;2022-09-09T12:53:17;20.70;99.90
2489;DHT22;1255;48.716;9.124;2022-09-09T12:55:51;20.60;99.90
2489;DHT22;1255;48.716;9.124;2022-09-09T12:58:20;20.80;99.90
2489;DHT22;1255;48.716;9.124;2022-09-09T13:00:51;20.90;99.90
2489;DHT22;1255;48.716;9.124;2022-09-09T13:03:20;20.90;99.90
2489;DHT22;1255;48.716;9.124;2022-09-09T13:05:48;20.80;99.90
2489;DHT22;1255;48.716;9.124;2022-09-09T13:08:17;20.80;99.90
2489;DHT22;1255;48.716;9.124;2022-09-09T13:10:48;20.70;99.90
2489;DHT22;1255;48.716;9.124;2022-09-09T13:13:21;20.70;99.90
2489;DHT22;1255;48.716;9.124;2022-09-09T13:15:51;20.50;99.90
2489;DHT22;1255;48.716;9.124;2022-09-09T13:18:22;20.60;99.90
2489;DHT22;1255;48.716;9.124;2022-09-09T13:20:50;21.00;99.90
2489;DHT22;1255;48.716;9.124;2022-09-09T13:23:18;21.20;99.90
2489;DHT22;1255;48.716;9.124;2022-09-09T13:25:53;21.50;99.90
2489;DHT22;1255;48.716;9.124;2022-09-09T13:28:22;21.80;99.90
2489;DHT22;1255;48.716;9.124;2022-09-09T13:30:57;21.90;99.90
2489;DHT22;1255;48.716;9.124;2022-09-09T13:33:34;21.90;99.90
2489;DHT22;1255;48.716;9.124;2022-09-09T13:36:04;22.00;99.90
2489;DHT22;1255;48.716;9.124;2022-09-09T13:38:35;22.10;99.90
2489;DHT22;1255;48.716;9.124;2022-09-09T13:41:19;22.10;99.90
2489;DHT22;1255;48.716;9.124;2022-09-09T13:43:50;21.80;99.90
2489;DHT22;1255;48.716;9.124;2022-09-09T13:49:22;21.80;99.90
2489;DHT22;1255;48.716;9.124;2022-09-09T13:52:10;22.10;99.90
2489;DHT22;1255;48.716;9.124;2022-09-09T13:54:39;22.40;99.90
2489;DHT22;1255;48.716;9.124;2022-09-09T14:25:54;23.00;99.80
2489;DHT22;1255;48.716;9.124;2022-09-09T14:28:22;23.00;99.30
2489;DHT22;1255;48.716;9.124;2022-09-09T14:30:49;23.10;99.10
2489;DHT22;1255;48.716;9.124;2022-09-09T14:33:16;23.10;99.30
2489;DHT22;1255;48.716;9.124;2022-09-09T14:35:43;23.10;97.70
2489;DHT22;1255;48.716;9.124;2022-09-09T14:38:10;23.00;97.70
2489;DHT22;1255;48.716;9.124;2022-09-09T14:40:38;23.00;98.30
2489;DHT22;1255;48.716;9.124;2022-09-09T14:43:06;23.00;99.00
2489;DHT22;1255;48.716;9.124;2022-09-09T14:45:33;23.00;95.80
2489;DHT22;1255;48.716;9.124;2022-09-09T14:48:03;22.80;97.00
2489;DHT22;1255;48.716;9.124;2022-09-09T14:50:30;22.80;98.10
2489;DHT22;1255;48.716;9.124;2022-09-09T14:52:57;22.80;97.80
2489;DHT22;1255;48.716;9.124;2022-09-09T14:55:23;22.70;97.70
2489;DHT22;1255;48.716;9.124;2022-09-09T14:57:50;22.70;97.00
2489;DHT22;1255;48.716;9.124;2022-09-09T15:00:18;22.70;98.20
2489;DHT22;1255;48.716;9.124;2022-09-09T15:02:45;22.70;97.50
2489;DHT22;1255;48.716;9.124;2022-09-09T15:05:12;22.80;98.00
2489;DHT22;1255;48.716;9.124;2022-09-09T15:07:38;22.80;97.70
2489;DHT22;1255;48.716;9.124;2022-09-09T15:10:07;22.90;97.40
2489;DHT22;1255;48.716;9.124;2022-09-09T15:12:34;22.90;97.80
2489;DHT22;1255;48.716;9.124;2022-09-09T15:15:02;22.80;97.60
2489;DHT22;1255;48.716;9.124;2022-09-09T15:17:30;22.70;98.10
2489;DHT22;1255;48.716;9.124;2022-09-09T15:19:57;22.90;98.40
2489;DHT22;1255;48.716;9.124;2022-09-09T15:22:24;22.80;97.30
2489;DHT22;1255;48.716;9.124;2022-09-09T15:24:51;22.70;98.40
2489;DHT22;1255;48.716;9.124;2022-09-09T15:27:18;22.80;97.70
2489;DHT22;1255;48.716;9.124;2022-09-09T15:29:45;22.70;98.20
2489;DHT22;1255;48.716;9.124;2022-09-09T15:32:12;22.80;99.20
2489;DHT22;1255;48.716;9.124;2022-09-09T15:34:40;22.70;97.20
2489;DHT22;1255;48.716;9.124;2022-09-09T15:37:09;22.60;97.60
2489;DHT22;1255;48.716;9.124;2022-09-09T15:39:38;22.50;97.70
2489;DHT22;1255;48.716;9.124;2022-09-09T15:42:05;22.30;98.10
2489;DHT22;1255;48.716;9.124;2022-09-09T15:44:38;22.10;98.60
2489;DHT22;1255;48.716;9.124;2022-09-09T15:47:05;21.80;98.60
2489;DHT22;1255;48.716;9.124;2022-09-09T15:49:32;21.50;97.30
2489;DHT22;1255;48.716;9.124;2022-09-09T15:52:01;21.20;97.90
2489;DHT22;1255;48.716;9.124;2022-09-09T15:54:31;21.00;97.70
2489;DHT22;1255;48.716;9.124;2022-09-09T15:57:00;20.80;98.00
2489;DHT22;1255;48.716;9.124;2022-09-09T15:59:28;20.70;98.50
2489;DHT22;1255;48.716;9.124;2022-09-09T16:01:55;20.70;98.00
2489;DHT22;1255;48.716;9.124;2022-09-09T16:04:24;20.50;98.50
2489;DHT22;1255;48.716;9.124;2022-09-09T16:06:51;20.40;98.40
2489;DHT22;1255;48.716;9.124;2022-09-09T16:09:20;20.30;98.50
2489;DHT22;1255;48.716;9.124;2022-09-09T16:11:47;20.30;98.60
2489;DHT22;1255;48.716;9.124;2022-09-09T16:14:14;20.20;99.10
2489;DHT22;1255;48.716;9.124;2022-09-09T16:16:42;20.20;99.80
2489;DHT22;1255;48.716;9.124;2022-09-09T16:19:11;20.20;99.50
2489;DHT22;1255;48.716;9.124;2022-09-09T16:21:40;20.10;98.80
2489;DHT22;1255;48.716;9.124;2022-09-09T16:24:09;20.00;99.20
2489;DHT22;1255;48.716;9.124;2022-09-09T16:26:39;20.00;99.50
2489;DHT22;1255;48.716;9.124;2022-09-09T16:29:07;20.00;99.30
2489;DHT22;1255;48.716;9.124;2022-09-09T16:31:34;19.90;99.30
2489;DHT22;1255;48.716;9.124;2022-09-09T16:34:02;19.90;99.40
2489;DHT22;1255;48.716;9.124;2022-09-09T16:36:31;19.90;99.80
2489;DHT22;1255;48.716;9.124;2022-09-09T16:39:00;19.80;99.90
2489;DHT22;1255;48.716;9.124;2022-09-09T16:41:28;19.80;99.90
2489;DHT22;1255;48.716;9.124;2022-09-09T16:43:58;19.70;99.90
2489;DHT22;1255;48.716;9.124;2022-09-09T16:46:27;19.60;99.90
2489;DHT22;1255;48.716;9.124;2022-09-09T17:30:40;18.50;99.90
2489;DHT22;1255;48.716;9.124;2022-09-09T17:33:22;18.50;99.90
2489;DHT22;1255;48.716;9.124;2022-09-09T17:35:59;18.40;99.90
2489;DHT22;1255;48.716;9.124;2022-09-09T17:38:58;18.40;99.90
2489;DHT22;1255;48.716;9.124;2022-09-09T17:41:39;18.30;99.90
2489;DHT22;1255;48.716;9.124;2022-09-09T17:45:01;18.30;99.90
2489;DHT22;1255;48.716;9.124;2022-09-09T17:47:45;18.20;99.90
2489;DHT22;1255;48.716;9.124;2022-09-09T17:50:13;18.10;99.90
2489;DHT22;1255;48.716;9.124;2022-09-09T17:52:40;18.10;99.90
2489;DHT22;1255;48.716;9.124;2022-09-09T17:55:08;18.00;99.90
2489;DHT22;1255;48.716;9.124;2022-09-09T17:57:35;18.00;99.90
2489;DHT22;1255;48.716;9.124;2022-09-09T18:00:04;17.80;99.90
2489;DHT22;1255;48.716;9.124;2022-09-09T18:02:31;17.80;99.90
2489;DHT22;1255;48.716;9.124;2022-09-09T18:04:59;17.70;99.90
2489;DHT22;1255;48.716;9.124;2022-09-09T18:07:27;17.60;99.90
2489;DHT22;1255;48.716;9.124;2022-09-09T18:09:54;17.50;99.90
2489;DHT22;1255;48.716;9.124;2022-09-09T18:12:21;17.50;99.90
2489;DHT22;1255;48.716;9.124;2022-09-09T18:14:47;17.30;99.90
2489;DHT22;1255;48.716;9.124;2022-09-09T18:17:15;17.30;99.90
2489;DHT22;1255;48.716;9.124;2022-09-09T18:19:42;17.30;99.90
2489;DHT22;1255;48.716;9.124;2022-09-09T18:22:10;17.20;99.90
2489;DHT22;1255;48.716;9.124;2022-09-09T18:24:37;17.20;99.90
2489;DHT22;1255;48.716;9.124;2022-09-09T18:27:05;17.20;99.90
2489;DHT22;1255;48.716;9.124;2022-09-09T18:29:32;17.10;99.90
2489;DHT22;1255;48.716;9.124;2022-09-09T18:40:55;17.10;99.90
2489;DHT22;1255;48.716;9.124;2022-09-09T18:43:23;17.10;99.90
2489;DHT22;1255;48.716;9.124;2022-09-09T18:45:49;17.10;99.90
2489;DHT22;1255;48.716;9.124;2022-09-09T18:48:16;17.10;99.90
2489;DHT22;1255;48.716;9.124;2022-09-09T18:50:43;17.10;99.90
2489;DHT22;1255;48.716;9.124;2022-09-09T18:59:07;17.00;99.90
